createdAt,value
2019-02-20T00:00:45.208Z,-0.01
2019-02-20T00:03:14.293Z,0.01
2019-02-20T00:05:43.445Z,-0.03
2019-02-20T00:08:12.479Z,-0.13
2019-02-20T00:10:41.588Z,-0.03
2019-02-20T00:13:10.675Z,-0.05
2019-02-20T00:15:39.783Z,-0.05
2019-02-20T00:18:08.864Z,-0.09
2019-02-20T00:20:37.971Z,-0.15
2019-02-20T00:23:07.063Z,-0.17
2019-02-20T00:25:36.166Z,-0.26
2019-02-20T00:28:05.250Z,-0.42
2019-02-20T00:30:34.341Z,-0.45
2019-02-20T00:33:03.436Z,-0.37
2019-02-20T00:35:32.525Z,-0.31
2019-02-20T00:38:01.635Z,-0.32
2019-02-20T00:40:30.711Z,-0.27
2019-02-20T00:42:59.819Z,-0.39
2019-02-20T00:45:47.209Z,-0.33
2019-02-20T00:48:29.410Z,-0.26
2019-02-20T00:51:07.546Z,-0.33
2019-02-20T00:53:41.871Z,-0.55
2019-02-20T00:56:10.950Z,-0.71
2019-02-20T00:58:40.050Z,-0.57
2019-02-20T01:01:09.138Z,-0.59
2019-02-20T01:03:38.242Z,-0.67
2019-02-20T01:06:07.328Z,-0.71
2019-02-20T01:08:36.432Z,-0.71
2019-02-20T01:11:05.514Z,-0.78
2019-02-20T01:13:34.622Z,-0.76
2019-02-20T01:16:03.713Z,-0.80
2019-02-20T01:18:32.813Z,-0.76
2019-02-20T01:21:01.902Z,-0.72
2019-02-20T01:23:31.002Z,-0.65
2019-02-20T01:26:00.109Z,-0.61
2019-02-20T01:28:29.209Z,-0.65
2019-02-20T01:30:58.296Z,-0.63
2019-02-20T01:33:27.418Z,-0.62
2019-02-20T01:35:56.509Z,-0.51
2019-02-20T01:38:25.617Z,-0.42
2019-02-20T01:40:54.705Z,-0.37
2019-02-20T01:43:23.811Z,-0.34
2019-02-20T01:45:52.894Z,-0.35
2019-02-20T01:48:22.003Z,-0.36
2019-02-20T01:50:51.110Z,-0.32
2019-02-20T01:53:20.191Z,-0.39
2019-02-20T01:55:49.301Z,-0.40
2019-02-20T01:58:18.383Z,-0.37
2019-02-20T02:00:47.492Z,-0.51
2019-02-20T02:03:16.575Z,-0.52
2019-02-20T02:05:45.681Z,-0.56
2019-02-20T02:08:14.773Z,-0.55
2019-02-20T02:10:43.883Z,-0.51
2019-02-20T02:13:12.971Z,-0.56
2019-02-20T02:15:42.081Z,-0.64
2019-02-20T02:18:11.169Z,-0.54
2019-02-20T02:20:40.304Z,-0.66
2019-02-20T02:23:09.360Z,-0.60
2019-02-20T02:25:38.471Z,-0.56
2019-02-20T02:28:07.559Z,-0.39
2019-02-20T02:30:36.652Z,-0.46
2019-02-20T02:33:05.731Z,-0.42
2019-02-20T02:35:34.846Z,-0.38
2019-02-20T02:38:03.941Z,-0.42
2019-02-20T02:40:33.050Z,-0.33
2019-02-20T02:43:02.156Z,-0.42
2019-02-20T02:45:31.270Z,-0.39
2019-02-20T02:48:00.401Z,-0.44
2019-02-20T02:50:29.511Z,-0.49
2019-02-20T02:52:58.615Z,-0.42
2019-02-20T02:55:27.720Z,-0.47
2019-02-20T02:57:56.804Z,-0.45
2019-02-20T03:00:25.908Z,-0.44
2019-02-20T03:02:55.016Z,-0.52
2019-02-20T03:05:24.113Z,-0.54
2019-02-20T03:07:53.221Z,-0.52
2019-02-20T03:10:22.327Z,-0.51
2019-02-20T03:12:51.445Z,-0.41
2019-02-20T03:15:20.535Z,-0.49
2019-02-20T03:17:49.641Z,-0.55
2019-02-20T03:20:18.732Z,-0.63
2019-02-20T03:22:47.852Z,-0.67
2019-02-20T03:25:16.942Z,-0.64
2019-02-20T03:27:46.060Z,-0.68
2019-02-20T03:30:15.139Z,-0.70
2019-02-20T03:32:44.248Z,-0.67
2019-02-20T03:35:13.342Z,-0.74
2019-02-20T03:37:42.457Z,-0.75
2019-02-20T03:40:11.562Z,-0.66
2019-02-20T03:42:40.678Z,-0.73
2019-02-20T03:45:09.771Z,-0.79
2019-02-20T03:47:38.901Z,-0.68
2019-02-20T03:50:08.064Z,-0.71
2019-02-20T03:52:37.160Z,-0.80
2019-02-20T03:55:06.429Z,-0.81
2019-02-20T03:57:35.617Z,-0.83
2019-02-20T04:00:05.403Z,-0.87
2019-02-20T04:02:34.503Z,-0.73
2019-02-20T04:05:03.640Z,-0.82
2019-02-20T04:07:32.737Z,-0.87
2019-02-20T04:10:01.847Z,-0.97
2019-02-20T04:12:30.929Z,-1.00
2019-02-20T04:15:00.038Z,-1.05
2019-02-20T04:17:29.131Z,-1.01
2019-02-20T04:19:58.241Z,-0.98
2019-02-20T04:22:27.341Z,-0.89
2019-02-20T04:24:56.594Z,-0.81
2019-02-20T04:27:25.639Z,-0.76
2019-02-20T04:29:54.754Z,-0.80
2019-02-20T04:32:23.849Z,-0.64
2019-02-20T04:34:52.958Z,-0.80
2019-02-20T04:37:22.051Z,-0.88
2019-02-20T04:39:51.146Z,-0.95
2019-02-20T04:42:20.260Z,-0.80
2019-02-20T04:44:49.649Z,-0.84
2019-02-20T04:47:18.744Z,-0.79
2019-02-20T04:49:47.857Z,-0.71
2019-02-20T04:52:16.970Z,-0.72
2019-02-20T04:54:46.099Z,-0.76
2019-02-20T04:57:15.177Z,-0.79
2019-02-20T04:59:44.278Z,-0.79
2019-02-20T05:02:13.396Z,-0.77
2019-02-20T05:04:42.495Z,-0.74
2019-02-20T05:07:11.619Z,-0.80
2019-02-20T05:09:40.727Z,-0.80
2019-02-20T05:12:09.838Z,-0.82
2019-02-20T05:14:38.928Z,-0.80
2019-02-20T05:17:08.040Z,-0.78
2019-02-20T05:19:37.138Z,-0.83
2019-02-20T05:22:06.235Z,-0.88
2019-02-20T05:24:35.334Z,-0.79
2019-02-20T05:27:04.905Z,-0.78
2019-02-20T05:29:34.350Z,-0.73
2019-02-20T05:32:03.509Z,-0.64
2019-02-20T05:34:32.619Z,-0.45
2019-02-20T05:37:01.727Z,-0.48
2019-02-20T05:39:30.818Z,-0.47
2019-02-20T05:41:59.994Z,-0.37
2019-02-20T05:44:29.098Z,-0.51
2019-02-20T05:46:58.211Z,-0.48
2019-02-20T05:49:27.304Z,-0.44
2019-02-20T05:51:56.423Z,-0.45
2019-02-20T05:54:34.031Z,-0.30
2019-02-20T05:56:56.371Z,-0.37
2019-02-20T05:59:25.499Z,-0.34
2019-02-20T06:01:54.594Z,-0.36
2019-02-20T06:04:23.701Z,-0.28
2019-02-20T06:06:52.798Z,-0.11
2019-02-20T06:09:21.933Z,-0.03
2019-02-20T06:11:51.054Z,-0.05
2019-02-20T06:14:20.136Z,-0.07
2019-02-20T06:16:49.232Z,-0.14
2019-02-20T06:19:18.346Z,0.00
2019-02-20T06:21:47.438Z,0.05
2019-02-20T06:24:16.554Z,0.19
2019-02-20T06:26:45.658Z,0.20
2019-02-20T06:29:14.767Z,0.20
2019-02-20T06:31:43.861Z,0.30
2019-02-20T06:34:12.978Z,0.33
2019-02-20T06:36:42.065Z,0.35
2019-02-20T06:39:11.186Z,0.38
2019-02-20T06:41:40.273Z,0.31
2019-02-20T06:44:09.394Z,0.33
2019-02-20T06:46:38.487Z,0.46
2019-02-20T06:49:07.578Z,0.52
2019-02-20T06:51:36.719Z,0.61
2019-02-20T06:54:05.957Z,0.72
2019-02-20T06:56:35.077Z,0.81
2019-02-20T06:59:04.174Z,0.96
2019-02-20T07:01:33.286Z,1.16
2019-02-20T07:04:02.381Z,1.35
2019-02-20T07:07:01.518Z,1.55
2019-02-20T07:10:10.048Z,1.50
2019-02-20T07:13:13.054Z,1.81
2019-02-20T07:15:59.608Z,2.00
2019-02-20T07:18:52.068Z,1.98
2019-02-20T07:21:58.958Z,2.24
2019-02-20T07:25:04.862Z,2.39
2019-02-20T07:28:24.877Z,2.57
2019-02-20T07:30:54.003Z,2.54
2019-02-20T07:33:23.081Z,2.69
2019-02-20T07:35:52.194Z,3.14
2019-02-20T07:38:21.293Z,3.55
2019-02-20T07:40:50.412Z,3.67
2019-02-20T07:43:19.500Z,3.95
2019-02-20T07:45:49.268Z,4.57
2019-02-20T07:48:18.391Z,4.85
2019-02-20T07:50:47.493Z,4.96
2019-02-20T07:53:16.606Z,5.51
2019-02-20T07:55:45.688Z,5.68
2019-02-20T07:58:14.799Z,5.87
2019-02-20T08:00:43.888Z,6.40
2019-02-20T08:03:12.987Z,7.05
2019-02-20T08:05:42.073Z,7.06
2019-02-20T08:08:11.212Z,7.38
2019-02-20T08:10:40.286Z,7.90
2019-02-20T08:13:09.563Z,8.35
2019-02-20T08:15:38.663Z,8.44
2019-02-20T08:18:07.769Z,9.05
2019-02-20T08:20:36.855Z,8.59
2019-02-20T08:23:05.974Z,8.37
2019-02-20T08:25:35.064Z,8.15
2019-02-20T08:28:04.188Z,8.90
2019-02-20T08:30:33.273Z,8.90
2019-02-20T08:33:02.429Z,9.17
2019-02-20T08:35:31.472Z,9.89
2019-02-20T08:38:00.582Z,10.14
2019-02-20T08:40:29.668Z,10.22
2019-02-20T08:42:58.778Z,11.13
2019-02-20T08:45:27.870Z,12.15
2019-02-20T08:47:56.961Z,12.92
2019-02-20T08:50:26.252Z,12.13
2019-02-20T08:52:55.385Z,13.67
2019-02-20T08:55:31.763Z,12.79
2019-02-20T08:57:55.378Z,12.08
2019-02-20T09:00:24.448Z,11.66
2019-02-20T09:02:53.536Z,10.95
2019-02-20T09:05:22.646Z,9.28
2019-02-20T09:07:51.728Z,7.88
2019-02-20T09:10:20.837Z,6.92
2019-02-20T09:12:49.921Z,6.88
2019-02-20T09:15:19.026Z,6.73
2019-02-20T09:17:48.118Z,6.75
2019-02-20T09:20:17.234Z,7.98
2019-02-20T09:22:46.323Z,9.93
2019-02-20T09:25:19.833Z,9.80
2019-02-20T09:27:46.251Z,11.72
2019-02-20T09:30:15.581Z,10.64
2019-02-20T09:32:44.698Z,12.52
2019-02-20T09:35:13.802Z,13.56
2019-02-20T09:37:42.907Z,15.01
2019-02-20T09:40:14.165Z,14.28
2019-02-20T09:42:44.829Z,14.92
2019-02-20T09:45:13.961Z,14.26
2019-02-20T09:47:43.062Z,17.07
2019-02-20T09:50:12.370Z,17.74
2019-02-20T09:52:41.517Z,19.44
2019-02-20T09:55:11.335Z,16.50
2019-02-20T09:57:59.462Z,13.74
2019-02-20T10:00:28.567Z,12.49
2019-02-20T10:02:57.694Z,11.18
2019-02-20T10:05:26.782Z,12.01
2019-02-20T10:07:55.908Z,15.58
2019-02-20T10:10:25.002Z,15.59
2019-02-20T10:12:54.130Z,17.38
2019-02-20T10:15:23.223Z,19.87
2019-02-20T10:17:52.344Z,15.77
2019-02-20T10:20:21.439Z,15.62
2019-02-20T10:22:50.560Z,15.36
2019-02-20T10:25:19.666Z,15.49
2019-02-20T10:27:48.771Z,14.21
2019-02-20T10:30:17.893Z,13.71
2019-02-20T10:32:47.021Z,13.60
2019-02-20T10:35:16.112Z,14.18
2019-02-20T10:37:45.223Z,13.09
2019-02-20T10:40:14.322Z,11.64
2019-02-20T10:42:43.445Z,10.82
2019-02-20T10:45:12.559Z,9.89
2019-02-20T10:47:41.673Z,9.97
2019-02-20T10:50:10.936Z,9.89
2019-02-20T10:52:40.095Z,9.62
2019-02-20T10:55:09.295Z,9.96
2019-02-20T10:57:38.389Z,10.80
2019-02-20T11:00:23.544Z,10.68
2019-02-20T11:02:44.721Z,11.26
2019-02-20T11:05:13.810Z,11.07
2019-02-20T11:07:42.893Z,10.86
2019-02-20T11:10:12.007Z,10.15
2019-02-20T11:12:41.102Z,10.82
2019-02-20T11:15:10.219Z,11.22
2019-02-20T11:17:39.309Z,12.99
2019-02-20T11:20:08.572Z,12.61
2019-02-20T11:22:37.655Z,14.31
2019-02-20T11:25:08.020Z,14.05
2019-02-20T11:27:37.136Z,14.69
2019-02-20T11:30:08.035Z,15.49
2019-02-20T11:32:37.140Z,17.77
2019-02-20T11:35:06.701Z,16.65
2019-02-20T11:37:35.793Z,17.98
2019-02-20T11:40:05.348Z,17.49
2019-02-20T11:42:34.432Z,18.21
2019-02-20T11:45:03.675Z,18.59
2019-02-20T11:47:33.653Z,18.19
2019-02-20T11:50:02.764Z,18.45
2019-02-20T11:52:38.179Z,19.68
2019-02-20T11:55:02.700Z,20.05
2019-02-20T11:57:31.803Z,17.90
2019-02-20T12:00:00.892Z,17.95
2019-02-20T12:02:37.328Z,16.72
2019-02-20T12:05:00.821Z,14.73
2019-02-20T12:07:30.031Z,13.01
2019-02-20T12:09:59.120Z,13.45
2019-02-20T12:12:28.326Z,11.70
2019-02-20T12:14:57.419Z,13.40
2019-02-20T12:17:26.515Z,13.95
2019-02-20T12:19:55.602Z,15.15
2019-02-20T12:22:24.706Z,15.80
2019-02-20T12:24:54.853Z,17.86
2019-02-20T12:27:23.968Z,19.11
2019-02-20T12:29:53.078Z,17.93
2019-02-20T12:32:22.182Z,20.42
2019-02-20T12:34:51.263Z,20.63
2019-02-20T12:37:20.368Z,20.22
2019-02-20T12:39:49.445Z,20.34
2019-02-20T12:42:18.549Z,18.46
2019-02-20T12:44:47.630Z,18.80
2019-02-20T12:47:16.733Z,19.68
2019-02-20T12:49:46.404Z,18.07
2019-02-20T12:52:15.496Z,17.65
2019-02-20T12:54:44.586Z,15.67
2019-02-20T12:57:13.693Z,15.67
2019-02-20T12:59:42.779Z,15.85
2019-02-20T13:02:11.862Z,15.53
2019-02-20T13:04:40.975Z,14.83
2019-02-20T13:07:10.075Z,15.22
2019-02-20T13:09:39.191Z,14.82
2019-02-20T13:12:08.294Z,14.17
2019-02-20T13:14:37.417Z,13.85
2019-02-20T13:17:06.504Z,13.24
2019-02-20T13:19:35.657Z,13.31
2019-02-20T13:22:04.709Z,12.84
2019-02-20T13:24:33.830Z,12.15
2019-02-20T13:27:07.681Z,13.01
2019-02-20T13:29:33.759Z,14.95
2019-02-20T13:32:02.847Z,14.76
2019-02-20T13:34:31.958Z,12.84
2019-02-20T13:37:01.063Z,12.24
2019-02-20T13:39:30.158Z,11.95
2019-02-20T13:41:59.248Z,12.31
2019-02-20T13:44:28.366Z,13.27
2019-02-20T13:46:57.722Z,14.62
2019-02-20T13:49:26.832Z,13.27
2019-02-20T13:51:55.942Z,12.96
2019-02-20T13:54:25.052Z,13.28
2019-02-20T13:57:01.629Z,13.94
2019-02-20T13:59:25.014Z,14.15
2019-02-20T14:01:54.473Z,15.17
2019-02-20T14:04:23.593Z,14.60
2019-02-20T14:06:52.779Z,13.40
2019-02-20T14:09:21.886Z,12.33
2019-02-20T14:11:50.973Z,12.62
2019-02-20T14:14:20.060Z,13.19
2019-02-20T14:16:49.190Z,13.33
2019-02-20T14:19:18.275Z,15.05
2019-02-20T14:21:47.397Z,14.63
2019-02-20T14:24:16.488Z,15.55
2019-02-20T14:26:45.593Z,14.79
2019-02-20T14:29:14.673Z,15.27
2019-02-20T14:31:43.795Z,14.61
2019-02-20T14:34:13.173Z,13.49
2019-02-20T14:36:42.289Z,12.46
2019-02-20T14:39:11.371Z,12.24
2019-02-20T14:41:40.479Z,11.59
2019-02-20T14:44:09.571Z,11.23
2019-02-20T14:46:38.679Z,11.20
2019-02-20T14:49:09.482Z,11.47
2019-02-20T14:51:38.681Z,11.11
2019-02-20T14:54:07.771Z,11.07
2019-02-20T14:56:36.889Z,11.23
2019-02-20T14:59:05.974Z,11.18
2019-02-20T15:01:35.091Z,10.84
2019-02-20T15:04:04.180Z,10.99
2019-02-20T15:06:33.301Z,11.75
2019-02-20T15:09:02.399Z,12.08
2019-02-20T15:11:31.500Z,12.42
2019-02-20T15:14:00.612Z,13.32
2019-02-20T15:16:29.706Z,13.82
2019-02-20T15:18:58.887Z,13.38
2019-02-20T15:21:28.060Z,12.85
2019-02-20T15:23:57.171Z,11.66
2019-02-20T15:26:26.260Z,10.96
2019-02-20T15:28:55.385Z,10.66
2019-02-20T15:31:33.156Z,10.58
2019-02-20T15:33:55.307Z,10.49
2019-02-20T15:36:24.671Z,10.88
2019-02-20T15:38:53.796Z,10.82
2019-02-20T15:41:22.870Z,10.49
2019-02-20T15:43:51.979Z,10.51
2019-02-20T15:46:21.064Z,10.21
2019-02-20T15:48:50.175Z,10.50
2019-02-20T15:51:19.284Z,10.66
2019-02-20T15:53:48.421Z,10.16
2019-02-20T15:56:17.519Z,10.05
2019-02-20T15:58:46.625Z,10.74
2019-02-20T16:01:15.710Z,10.96
2019-02-20T16:03:44.829Z,11.50
2019-02-20T16:06:13.916Z,11.64
2019-02-20T16:08:43.310Z,11.31
2019-02-20T16:11:12.404Z,10.67
2019-02-20T16:13:41.524Z,10.27
2019-02-20T16:16:11.681Z,9.90
2019-02-20T16:18:40.774Z,9.57
2019-02-20T16:21:09.698Z,9.38
2019-02-20T16:23:38.770Z,9.41
2019-02-20T16:26:07.871Z,9.26
2019-02-20T16:28:36.947Z,9.12
2019-02-20T16:31:06.059Z,8.97
2019-02-20T16:33:35.151Z,8.73
2019-02-20T16:36:04.295Z,8.67
2019-02-20T16:38:33.426Z,8.51
2019-02-20T16:41:04.626Z,8.31
2019-02-20T16:43:33.517Z,8.19
2019-02-20T16:46:02.630Z,7.99
2019-02-20T16:48:31.794Z,7.85
2019-02-20T16:51:00.929Z,7.73
2019-02-20T16:53:30.016Z,7.63
2019-02-20T16:55:59.505Z,7.38
2019-02-20T16:58:28.641Z,7.24
2019-02-20T17:00:57.752Z,6.94
2019-02-20T17:03:26.834Z,6.77
2019-02-20T17:05:55.935Z,6.62
2019-02-20T17:08:25.034Z,6.44
2019-02-20T17:10:54.489Z,6.43
2019-02-20T17:13:23.597Z,6.15
2019-02-20T17:15:52.718Z,5.88
2019-02-20T17:18:21.819Z,5.73
2019-02-20T17:20:50.908Z,5.57
2019-02-20T17:23:20.007Z,5.50
2019-02-20T17:25:49.124Z,5.35
2019-02-20T17:28:18.237Z,5.25
2019-02-20T17:30:47.310Z,5.06
2019-02-20T17:33:16.589Z,4.90
2019-02-20T17:35:45.673Z,4.90
2019-02-20T17:38:14.777Z,4.80
2019-02-20T17:40:43.873Z,4.59
2019-02-20T17:43:12.993Z,4.52
2019-02-20T17:45:42.074Z,4.43
2019-02-20T17:48:11.175Z,4.35
2019-02-20T17:50:40.278Z,4.32
2019-02-20T17:53:09.419Z,4.15
2019-02-20T17:55:38.495Z,4.22
2019-02-20T17:58:14.862Z,4.19
2019-02-20T18:00:38.669Z,4.09
2019-02-20T18:03:07.770Z,4.06
2019-02-20T18:05:36.874Z,4.09
2019-02-20T18:08:05.977Z,3.93
2019-02-20T18:10:35.060Z,3.94
2019-02-20T18:13:04.163Z,3.91
2019-02-20T18:15:33.246Z,3.94
2019-02-20T18:18:02.330Z,3.86
2019-02-20T18:20:31.432Z,3.79
2019-02-20T18:23:00.532Z,3.75
2019-02-20T18:25:29.624Z,3.80
2019-02-20T18:27:59.643Z,3.58
2019-02-20T18:30:28.789Z,3.46
2019-02-20T18:32:57.889Z,3.45
2019-02-20T18:35:26.991Z,3.48
2019-02-20T18:37:56.072Z,3.50
2019-02-20T18:40:25.175Z,3.34
2019-02-20T18:42:54.453Z,3.21
2019-02-20T18:45:23.519Z,3.19
2019-02-20T18:47:52.603Z,3.05
2019-02-20T18:50:21.715Z,3.13
2019-02-20T18:52:50.838Z,3.23
2019-02-20T18:55:19.936Z,3.15
2019-02-20T18:57:49.020Z,3.07
2019-02-20T19:00:18.388Z,3.22
2019-02-20T19:02:47.458Z,3.24
2019-02-20T19:05:18.698Z,3.20
2019-02-20T19:07:47.392Z,3.12
2019-02-20T19:10:22.754Z,3.06
2019-02-20T19:13:37.173Z,3.21
2019-02-20T19:16:57.965Z,3.08
2019-02-20T19:19:47.672Z,3.10
2019-02-20T19:22:45.314Z,3.12
2019-02-20T19:25:41.610Z,3.18
2019-02-20T19:28:44.253Z,3.14
2019-02-20T19:32:07.509Z,3.24
2019-02-20T19:35:13.158Z,3.36
2019-02-20T19:38:14.138Z,3.21
2019-02-20T19:41:29.832Z,3.18
2019-02-20T19:44:39.400Z,3.12
2019-02-20T19:47:35.228Z,3.12
2019-02-20T19:50:56.227Z,3.04
2019-02-20T19:53:59.678Z,3.09
2019-02-20T19:56:47.691Z,3.04
2019-02-20T19:59:40.415Z,2.98
2019-02-20T20:02:41.494Z,2.88
2019-02-20T20:05:57.083Z,2.96
2019-02-20T20:08:54.739Z,3.02
2019-02-20T20:12:19.953Z,2.94
2019-02-20T20:15:32.324Z,3.05
2019-02-20T20:18:53.253Z,3.03
2019-02-20T20:21:42.730Z,2.99
2019-02-20T20:24:51.040Z,2.93
2019-02-20T20:27:54.171Z,2.83
2019-02-20T20:30:56.097Z,2.73
2019-02-20T20:34:09.651Z,2.71
2019-02-20T20:37:24.241Z,2.66
2019-02-20T20:40:19.407Z,2.79
2019-02-20T20:43:12.618Z,2.91
2019-02-20T20:46:06.085Z,2.96
2019-02-20T20:49:09.742Z,3.22
2019-02-20T20:52:14.507Z,3.36
2019-02-20T20:55:03.177Z,3.38
2019-02-20T20:58:15.889Z,3.34
2019-02-20T21:01:15.307Z,3.85
2019-02-20T21:04:01.619Z,3.58
2019-02-20T21:07:10.668Z,3.72
2019-02-20T21:10:08.547Z,3.86
2019-02-20T21:13:04.872Z,4.27
2019-02-20T21:15:53.967Z,4.24
2019-02-20T21:19:01.592Z,4.30
2019-02-20T21:22:05.833Z,4.39
2019-02-20T21:25:33.657Z,4.41
2019-02-20T21:28:46.882Z,4.35
2019-02-20T21:31:48.222Z,4.13
2019-02-20T21:34:42.912Z,3.91
2019-02-20T21:37:42.522Z,3.68
2019-02-20T21:40:22.519Z,3.54
2019-02-20T21:43:47.276Z,3.68
2019-02-20T21:46:51.743Z,3.34
2019-02-20T21:50:04.642Z,3.21
2019-02-20T21:53:10.722Z,3.11
2019-02-20T21:56:26.399Z,3.07
2019-02-20T21:59:11.870Z,2.97
2019-02-20T22:02:23.604Z,2.85
2019-02-20T22:05:14.014Z,2.84
2019-02-20T22:08:02.322Z,2.79
2019-02-20T22:11:11.179Z,2.55
2019-02-20T22:14:05.475Z,2.51
2019-02-20T22:16:56.501Z,2.22
2019-02-20T22:20:18.342Z,2.16
2019-02-20T22:23:20.395Z,2.20
2019-02-20T22:26:20.739Z,2.05
2019-02-20T22:29:09.639Z,1.92
2019-02-20T22:32:12.956Z,1.86
2019-02-20T22:35:12.030Z,1.86
2019-02-20T22:38:23.679Z,1.82
2019-02-20T22:41:15.124Z,1.71
2019-02-20T22:44:40.283Z,1.59
2019-02-20T22:47:38.193Z,1.54
2019-02-20T22:50:49.902Z,1.48
2019-02-20T22:53:42.583Z,1.36
2019-02-20T22:57:10.229Z,1.25
2019-02-20T23:00:01.483Z,1.22
2019-02-20T23:02:50.300Z,1.26
2019-02-20T23:06:15.193Z,1.14
2019-02-20T23:09:03.998Z,1.10
2019-02-20T23:11:50.751Z,1.04
2019-02-20T23:14:48.451Z,0.94
2019-02-20T23:17:17.559Z,0.94
2019-02-20T23:19:46.633Z,0.91
2019-02-20T23:22:15.740Z,0.99
2019-02-20T23:24:44.836Z,0.89
2019-02-20T23:27:13.940Z,0.93
2019-02-20T23:29:43.027Z,1.03
2019-02-20T23:32:12.130Z,0.93
2019-02-20T23:34:41.221Z,0.92
2019-02-20T23:37:10.307Z,0.81
2019-02-20T23:39:39.414Z,0.87
2019-02-20T23:42:08.502Z,0.89
2019-02-20T23:44:37.599Z,0.81
2019-02-20T23:47:06.690Z,0.74
2019-02-20T23:49:35.798Z,0.73
2019-02-20T23:52:04.897Z,0.67
2019-02-20T23:54:34.000Z,0.75
2019-02-20T23:57:03.078Z,0.76
2019-02-20T23:59:32.178Z,0.68
